CheckWX is a tool to help pilots better visualize weather data.  It is not intended as a substitute for an official pre-flight weather briefing.

16:44:22 UTC

VTCT METAR
Chiang Rai International Airport
Chiang Rai, Thailand
Current

44 mins ago

VTCT 161600Z 00000KT CAVOK 25/23 Q1009 NOSIG
Observed
Sep-16 @ 16:00 UTC
Visibility
10,000+ meters
Flight Rules
VFR
Cloud Levels
  • Clear skies
Temperature
25°C / 77°F
Dewpoint
23°C / 73°F
Humidity
89%
Altimeter
29.79" Hg
Pressure
1008.92 hPa
Previous

2 hours ago

VTCT 161500Z 00000KT CAVOK 26/23 Q1009 NOSIG
Observed
Sep-16 @ 15:00 UTC
Visibility
10,000+ meters
Flight Rules
VFR
Cloud Levels
  • Clear skies
Temperature
26°C / 79°F
Dewpoint
23°C / 73°F
Humidity
84%
Altimeter
29.79" Hg
Pressure
1008.92 hPa
Previous

3 hours ago

VTCT 161400Z 27003KT CAVOK 26/25 Q1008 NOSIG
Observed
Sep-16 @ 14:00 UTC
Wind
  • 270° at 3 KTS
Visibility
10,000+ meters
Flight Rules
VFR
Cloud Levels
  • Clear skies
Temperature
26°C / 79°F
Dewpoint
25°C / 77°F
Humidity
94%
Altimeter
29.76" Hg
Pressure
1007.92 hPa